sensor_id;sensor_type;location;lat;lon;timestamp;P1;durP1;ratioP1;P2;durP2;ratioP2
37517;SDS011;23366;52.498;13.446;2024-03-06T00:02:16;13.10;;;7.85;;
37517;SDS011;23366;52.498;13.446;2024-03-06T00:04:42;18.40;;;8.35;;
37517;SDS011;23366;52.498;13.446;2024-03-06T00:07:08;16.05;;;9.43;;
37517;SDS011;23366;52.498;13.446;2024-03-06T00:09:34;17.60;;;9.68;;
37517;SDS011;23366;52.498;13.446;2024-03-06T00:12:01;16.52;;;8.38;;
37517;SDS011;23366;52.498;13.446;2024-03-06T00:14:27;15.23;;;8.80;;
37517;SDS011;23366;52.498;13.446;2024-03-06T00:16:53;17.48;;;8.00;;
37517;SDS011;23366;52.498;13.446;2024-03-06T00:19:22;17.25;;;8.40;;
37517;SDS011;23366;52.498;13.446;2024-03-06T00:21:48;15.32;;;8.55;;
37517;SDS011;23366;52.498;13.446;2024-03-06T00:24:15;15.68;;;9.60;;
37517;SDS011;23366;52.498;13.446;2024-03-06T00:26:44;13.25;;;7.57;;
37517;SDS011;23366;52.498;13.446;2024-03-06T00:29:11;17.58;;;8.63;;
37517;SDS011;23366;52.498;13.446;2024-03-06T00:31:41;24.95;;;8.90;;
37517;SDS011;23366;52.498;13.446;2024-03-06T00:34:07;15.48;;;8.10;;
37517;SDS011;23366;52.498;13.446;2024-03-06T00:36:34;19.98;;;7.65;;
37517;SDS011;23366;52.498;13.446;2024-03-06T00:39:00;22.08;;;10.05;;
37517;SDS011;23366;52.498;13.446;2024-03-06T00:41:26;22.35;;;9.52;;
37517;SDS011;23366;52.498;13.446;2024-03-06T00:43:52;18.80;;;8.38;;
37517;SDS011;23366;52.498;13.446;2024-03-06T00:46:18;17.60;;;9.38;;
37517;SDS011;23366;52.498;13.446;2024-03-06T00:48:43;18.25;;;9.23;;
37517;SDS011;23366;52.498;13.446;2024-03-06T00:51:09;14.82;;;8.95;;
37517;SDS011;23366;52.498;13.446;2024-03-06T00:53:35;17.27;;;11.43;;
37517;SDS011;23366;52.498;13.446;2024-03-06T00:56:02;20.42;;;9.50;;
37517;SDS011;23366;52.498;13.446;2024-03-06T00:58:28;13.32;;;7.70;;
37517;SDS011;23366;52.498;13.446;2024-03-06T01:00:54;21.17;;;8.63;;
37517;SDS011;23366;52.498;13.446;2024-03-06T01:03:20;17.73;;;10.70;;
37517;SDS011;23366;52.498;13.446;2024-03-06T01:05:46;21.23;;;10.48;;
37517;SDS011;23366;52.498;13.446;2024-03-06T01:08:12;17.83;;;7.43;;
37517;SDS011;23366;52.498;13.446;2024-03-06T01:10:38;16.65;;;8.18;;
37517;SDS011;23366;52.498;13.446;2024-03-06T01:13:04;14.15;;;8.25;;
37517;SDS011;23366;52.498;13.446;2024-03-06T01:15:30;15.35;;;8.15;;
37517;SDS011;23366;52.498;13.446;2024-03-06T01:17:56;17.33;;;8.57;;
37517;SDS011;23366;52.498;13.446;2024-03-06T01:20:22;15.40;;;8.95;;
37517;SDS011;23366;52.498;13.446;2024-03-06T01:22:48;18.70;;;8.70;;
37517;SDS011;23366;52.498;13.446;2024-03-06T01:25:14;14.73;;;7.72;;
37517;SDS011;23366;52.498;13.446;2024-03-06T01:27:40;14.52;;;8.40;;
37517;SDS011;23366;52.498;13.446;2024-03-06T01:30:06;18.77;;;8.85;;
37517;SDS011;23366;52.498;13.446;2024-03-06T01:32:32;21.92;;;10.10;;
37517;SDS011;23366;52.498;13.446;2024-03-06T01:34:58;15.32;;;8.82;;
37517;SDS011;23366;52.498;13.446;2024-03-06T01:37:24;18.60;;;8.18;;
37517;SDS011;23366;52.498;13.446;2024-03-06T01:39:50;18.00;;;8.98;;
37517;SDS011;23366;52.498;13.446;2024-03-06T01:42:17;17.23;;;9.27;;
37517;SDS011;23366;52.498;13.446;2024-03-06T01:44:45;16.35;;;8.38;;
37517;SDS011;23366;52.498;13.446;2024-03-06T01:47:11;17.70;;;9.60;;
37517;SDS011;23366;52.498;13.446;2024-03-06T01:49:37;19.40;;;9.60;;
37517;SDS011;23366;52.498;13.446;2024-03-06T01:52:03;16.58;;;8.68;;
37517;SDS011;23366;52.498;13.446;2024-03-06T01:54:29;19.80;;;9.20;;
37517;SDS011;23366;52.498;13.446;2024-03-06T01:56:56;11.38;;;8.48;;
37517;SDS011;23366;52.498;13.446;2024-03-06T01:59:25;11.18;;;7.18;;
37517;SDS011;23366;52.498;13.446;2024-03-06T02:01:52;17.65;;;9.65;;
37517;SDS011;23366;52.498;13.446;2024-03-06T02:04:18;13.13;;;7.45;;
37517;SDS011;23366;52.498;13.446;2024-03-06T02:06:45;16.67;;;9.60;;
37517;SDS011;23366;52.498;13.446;2024-03-06T02:09:11;15.35;;;7.15;;
37517;SDS011;23366;52.498;13.446;2024-03-06T02:11:40;16.92;;;8.98;;
37517;SDS011;23366;52.498;13.446;2024-03-06T02:14:06;19.92;;;9.02;;
37517;SDS011;23366;52.498;13.446;2024-03-06T02:16:35;14.75;;;8.05;;
37517;SDS011;23366;52.498;13.446;2024-03-06T02:19:01;17.52;;;7.95;;
37517;SDS011;23366;52.498;13.446;2024-03-06T02:21:27;14.38;;;8.23;;
37517;SDS011;23366;52.498;13.446;2024-03-06T02:23:53;16.77;;;8.05;;
37517;SDS011;23366;52.498;13.446;2024-03-06T02:26:19;16.13;;;7.07;;
37517;SDS011;23366;52.498;13.446;2024-03-06T02:28:49;17.80;;;8.55;;
37517;SDS011;23366;52.498;13.446;2024-03-06T02:31:15;12.75;;;8.80;;
37517;SDS011;23366;52.498;13.446;2024-03-06T02:33:42;16.92;;;8.23;;
37517;SDS011;23366;52.498;13.446;2024-03-06T02:36:09;16.42;;;7.95;;
37517;SDS011;23366;52.498;13.446;2024-03-06T02:38:35;16.23;;;8.25;;
37517;SDS011;23366;52.498;13.446;2024-03-06T02:41:02;16.55;;;8.07;;
37517;SDS011;23366;52.498;13.446;2024-03-06T02:43:28;15.77;;;10.00;;
37517;SDS011;23366;52.498;13.446;2024-03-06T02:45:54;15.13;;;7.50;;
37517;SDS011;23366;52.498;13.446;2024-03-06T02:48:20;21.30;;;10.13;;
37517;SDS011;23366;52.498;13.446;2024-03-06T02:50:46;22.63;;;9.52;;
37517;SDS011;23366;52.498;13.446;2024-03-06T02:53:12;16.45;;;9.15;;
37517;SDS011;23366;52.498;13.446;2024-03-06T02:55:37;17.05;;;9.63;;
37517;SDS011;23366;52.498;13.446;2024-03-06T02:58:04;14.23;;;7.18;;
37517;SDS011;23366;52.498;13.446;2024-03-06T03:00:30;22.17;;;10.45;;
37517;SDS011;23366;52.498;13.446;2024-03-06T03:02:56;14.48;;;7.88;;
37517;SDS011;23366;52.498;13.446;2024-03-06T03:05:22;16.25;;;9.02;;
37517;SDS011;23366;52.498;13.446;2024-03-06T03:07:49;17.92;;;9.27;;
37517;SDS011;23366;52.498;13.446;2024-03-06T03:10:15;16.63;;;8.68;;
37517;SDS011;23366;52.498;13.446;2024-03-06T03:12:41;15.45;;;9.27;;
37517;SDS011;23366;52.498;13.446;2024-03-06T03:15:07;16.55;;;10.05;;
37517;SDS011;23366;52.498;13.446;2024-03-06T03:17:34;17.45;;;8.98;;
37517;SDS011;23366;52.498;13.446;2024-03-06T03:20:00;17.38;;;7.93;;
37517;SDS011;23366;52.498;13.446;2024-03-06T03:22:34;16.60;;;9.60;;
37517;SDS011;23366;52.498;13.446;2024-03-06T03:25:00;19.75;;;11.30;;
37517;SDS011;23366;52.498;13.446;2024-03-06T03:27:26;15.93;;;8.88;;
37517;SDS011;23366;52.498;13.446;2024-03-06T03:29:53;15.93;;;9.63;;
37517;SDS011;23366;52.498;13.446;2024-03-06T03:32:19;18.27;;;8.57;;
37517;SDS011;23366;52.498;13.446;2024-03-06T03:34:44;16.67;;;9.25;;
37517;SDS011;23366;52.498;13.446;2024-03-06T03:37:12;17.98;;;9.32;;
37517;SDS011;23366;52.498;13.446;2024-03-06T03:39:38;24.15;;;9.70;;
37517;SDS011;23366;52.498;13.446;2024-03-06T03:42:04;16.17;;;9.38;;
37517;SDS011;23366;52.498;13.446;2024-03-06T03:44:31;17.52;;;9.13;;
37517;SDS011;23366;52.498;13.446;2024-03-06T03:46:57;17.02;;;8.02;;
37517;SDS011;23366;52.498;13.446;2024-03-06T03:49:23;22.85;;;11.70;;
37517;SDS011;23366;52.498;13.446;2024-03-06T03:51:49;18.45;;;8.68;;
37517;SDS011;23366;52.498;13.446;2024-03-06T03:54:15;20.98;;;8.43;;
37517;SDS011;23366;52.498;13.446;2024-03-06T03:56:41;19.42;;;8.85;;
37517;SDS011;23366;52.498;13.446;2024-03-06T03:59:07;19.88;;;10.63;;
37517;SDS011;23366;52.498;13.446;2024-03-06T04:01:33;20.52;;;8.90;;
37517;SDS011;23366;52.498;13.446;2024-03-06T04:03:58;23.30;;;10.88;;
37517;SDS011;23366;52.498;13.446;2024-03-06T04:06:24;20.08;;;9.63;;
37517;SDS011;23366;52.498;13.446;2024-03-06T04:08:50;16.40;;;9.63;;
37517;SDS011;23366;52.498;13.446;2024-03-06T04:11:17;13.35;;;8.88;;
37517;SDS011;23366;52.498;13.446;2024-03-06T04:13:43;14.27;;;8.18;;
37517;SDS011;23366;52.498;13.446;2024-03-06T04:16:09;19.75;;;10.75;;
37517;SDS011;23366;52.498;13.446;2024-03-06T04:18:35;21.42;;;9.57;;
37517;SDS011;23366;52.498;13.446;2024-03-06T04:21:04;17.60;;;9.75;;
37517;SDS011;23366;52.498;13.446;2024-03-06T04:23:30;19.65;;;8.43;;
37517;SDS011;23366;52.498;13.446;2024-03-06T04:25:56;15.80;;;8.90;;
37517;SDS011;23366;52.498;13.446;2024-03-06T04:28:22;14.75;;;9.52;;
37517;SDS011;23366;52.498;13.446;2024-03-06T04:30:48;19.65;;;9.52;;
37517;SDS011;23366;52.498;13.446;2024-03-06T04:33:14;17.30;;;8.57;;
37517;SDS011;23366;52.498;13.446;2024-03-06T04:35:40;15.52;;;8.43;;
37517;SDS011;23366;52.498;13.446;2024-03-06T04:38:06;20.42;;;9.50;;
37517;SDS011;23366;52.498;13.446;2024-03-06T04:40:33;18.90;;;10.10;;
37517;SDS011;23366;52.498;13.446;2024-03-06T04:43:01;18.63;;;9.93;;
37517;SDS011;23366;52.498;13.446;2024-03-06T04:45:27;19.30;;;11.02;;
37517;SDS011;23366;52.498;13.446;2024-03-06T04:47:54;27.27;;;10.75;;
37517;SDS011;23366;52.498;13.446;2024-03-06T04:50:20;24.38;;;11.57;;
37517;SDS011;23366;52.498;13.446;2024-03-06T04:52:46;19.10;;;10.25;;
37517;SDS011;23366;52.498;13.446;2024-03-06T04:55:12;17.20;;;9.07;;
37517;SDS011;23366;52.498;13.446;2024-03-06T04:57:42;21.50;;;9.02;;
37517;SDS011;23366;52.498;13.446;2024-03-06T05:00:09;19.88;;;9.02;;
37517;SDS011;23366;52.498;13.446;2024-03-06T05:02:35;27.55;;;11.30;;
37517;SDS011;23366;52.498;13.446;2024-03-06T05:05:02;14.93;;;7.82;;
37517;SDS011;23366;52.498;13.446;2024-03-06T05:07:29;17.30;;;8.50;;
37517;SDS011;23366;52.498;13.446;2024-03-06T05:09:56;18.25;;;9.15;;
37517;SDS011;23366;52.498;13.446;2024-03-06T05:12:25;14.43;;;8.48;;
37517;SDS011;23366;52.498;13.446;2024-03-06T05:14:51;21.75;;;10.95;;
37517;SDS011;23366;52.498;13.446;2024-03-06T05:17:17;19.52;;;8.90;;
37517;SDS011;23366;52.498;13.446;2024-03-06T05:19:44;14.20;;;8.50;;
37517;SDS011;23366;52.498;13.446;2024-03-06T05:22:10;15.25;;;9.20;;
37517;SDS011;23366;52.498;13.446;2024-03-06T05:24:37;18.17;;;8.60;;
37517;SDS011;23366;52.498;13.446;2024-03-06T05:27:03;19.52;;;9.52;;
37517;SDS011;23366;52.498;13.446;2024-03-06T05:29:29;19.95;;;10.48;;
37517;SDS011;23366;52.498;13.446;2024-03-06T05:31:54;17.08;;;9.35;;
37517;SDS011;23366;52.498;13.446;2024-03-06T05:34:21;20.38;;;8.57;;
37517;SDS011;23366;52.498;13.446;2024-03-06T05:36:48;17.52;;;9.00;;
37517;SDS011;23366;52.498;13.446;2024-03-06T05:39:14;13.65;;;9.93;;
37517;SDS011;23366;52.498;13.446;2024-03-06T05:41:40;16.85;;;8.88;;
37517;SDS011;23366;52.498;13.446;2024-03-06T05:44:06;16.75;;;8.52;;
37517;SDS011;23366;52.498;13.446;2024-03-06T05:46:32;18.15;;;8.82;;
37517;SDS011;23366;52.498;13.446;2024-03-06T05:48:58;17.08;;;8.43;;
37517;SDS011;23366;52.498;13.446;2024-03-06T05:51:26;16.88;;;11.18;;
37517;SDS011;23366;52.498;13.446;2024-03-06T05:53:52;23.20;;;10.63;;
37517;SDS011;23366;52.498;13.446;2024-03-06T05:56:18;21.02;;;9.25;;
37517;SDS011;23366;52.498;13.446;2024-03-06T05:58:44;19.60;;;9.63;;
37517;SDS011;23366;52.498;13.446;2024-03-06T06:01:11;27.88;;;10.32;;
37517;SDS011;23366;52.498;13.446;2024-03-06T06:03:38;20.85;;;11.43;;
37517;SDS011;23366;52.498;13.446;2024-03-06T06:06:04;20.75;;;8.85;;
37517;SDS011;23366;52.498;13.446;2024-03-06T06:08:30;24.77;;;10.45;;
37517;SDS011;23366;52.498;13.446;2024-03-06T06:10:56;19.58;;;10.57;;
37517;SDS011;23366;52.498;13.446;2024-03-06T06:13:22;14.57;;;9.05;;
37517;SDS011;23366;52.498;13.446;2024-03-06T06:15:48;20.02;;;10.52;;
37517;SDS011;23366;52.498;13.446;2024-03-06T06:18:14;21.50;;;9.07;;
37517;SDS011;23366;52.498;13.446;2024-03-06T06:20:41;23.65;;;10.45;;
37517;SDS011;23366;52.498;13.446;2024-03-06T06:23:07;14.27;;;8.85;;
37517;SDS011;23366;52.498;13.446;2024-03-06T06:25:33;16.83;;;9.30;;
37517;SDS011;23366;52.498;13.446;2024-03-06T06:28:00;21.02;;;9.88;;
37517;SDS011;23366;52.498;13.446;2024-03-06T06:30:26;18.60;;;11.05;;
37517;SDS011;23366;52.498;13.446;2024-03-06T06:32:52;22.20;;;10.13;;
37517;SDS011;23366;52.498;13.446;2024-03-06T06:35:17;23.58;;;12.07;;
37517;SDS011;23366;52.498;13.446;2024-03-06T06:37:44;18.77;;;10.05;;
37517;SDS011;23366;52.498;13.446;2024-03-06T06:40:11;18.85;;;10.90;;
37517;SDS011;23366;52.498;13.446;2024-03-06T06:42:43;20.17;;;10.15;;
37517;SDS011;23366;52.498;13.446;2024-03-06T06:47:35;18.17;;;8.85;;
37517;SDS011;23366;52.498;13.446;2024-03-06T06:50:01;15.40;;;9.18;;
37517;SDS011;23366;52.498;13.446;2024-03-06T06:52:30;14.98;;;8.75;;
37517;SDS011;23366;52.498;13.446;2024-03-06T06:54:58;14.63;;;7.90;;
37517;SDS011;23366;52.498;13.446;2024-03-06T06:57:24;14.13;;;8.65;;
37517;SDS011;23366;52.498;13.446;2024-03-06T06:59:51;12.70;;;7.63;;
37517;SDS011;23366;52.498;13.446;2024-03-06T07:02:17;10.70;;;6.80;;
37517;SDS011;23366;52.498;13.446;2024-03-06T07:04:43;12.45;;;6.80;;
37517;SDS011;23366;52.498;13.446;2024-03-06T07:07:09;14.65;;;7.60;;
37517;SDS011;23366;52.498;13.446;2024-03-06T07:09:35;19.88;;;8.48;;
37517;SDS011;23366;52.498;13.446;2024-03-06T07:12:01;12.43;;;7.22;;
37517;SDS011;23366;52.498;13.446;2024-03-06T07:14:28;10.50;;;6.57;;
37517;SDS011;23366;52.498;13.446;2024-03-06T07:16:53;14.18;;;7.20;;
37517;SDS011;23366;52.498;13.446;2024-03-06T07:19:19;15.05;;;6.13;;
37517;SDS011;23366;52.498;13.446;2024-03-06T07:21:45;15.57;;;7.30;;
37517;SDS011;23366;52.498;13.446;2024-03-06T07:24:11;11.45;;;7.15;;
37517;SDS011;23366;52.498;13.446;2024-03-06T07:26:37;12.95;;;7.00;;
37517;SDS011;23366;52.498;13.446;2024-03-06T07:29:03;12.32;;;7.20;;
37517;SDS011;23366;52.498;13.446;2024-03-06T07:31:31;9.43;;;6.10;;
37517;SDS011;23366;52.498;13.446;2024-03-06T07:33:57;7.68;;;5.00;;
37517;SDS011;23366;52.498;13.446;2024-03-06T07:36:23;9.10;;;5.53;;
37517;SDS011;23366;52.498;13.446;2024-03-06T07:38:49;9.73;;;6.05;;
37517;SDS011;23366;52.498;13.446;2024-03-06T07:41:15;9.60;;;5.97;;
37517;SDS011;23366;52.498;13.446;2024-03-06T07:43:41;10.77;;;6.30;;
37517;SDS011;23366;52.498;13.446;2024-03-06T07:46:07;9.88;;;6.95;;
37517;SDS011;23366;52.498;13.446;2024-03-06T07:48:38;10.73;;;6.28;;
37517;SDS011;23366;52.498;13.446;2024-03-06T07:51:04;7.70;;;5.10;;
37517;SDS011;23366;52.498;13.446;2024-03-06T07:53:30;7.68;;;5.53;;
37517;SDS011;23366;52.498;13.446;2024-03-06T07:55:56;8.88;;;5.03;;
37517;SDS011;23366;52.498;13.446;2024-03-06T07:58:22;8.82;;;6.03;;
37517;SDS011;23366;52.498;13.446;2024-03-06T08:00:48;8.35;;;4.82;;
37517;SDS011;23366;52.498;13.446;2024-03-06T08:03:14;7.18;;;4.80;;
37517;SDS011;23366;52.498;13.446;2024-03-06T08:05:40;8.88;;;5.38;;
37517;SDS011;23366;52.498;13.446;2024-03-06T08:08:06;8.82;;;5.72;;
37517;SDS011;23366;52.498;13.446;2024-03-06T08:10:32;7.03;;;4.95;;
37517;SDS011;23366;52.498;13.446;2024-03-06T08:12:58;7.07;;;4.30;;
37517;SDS011;23366;52.498;13.446;2024-03-06T08:15:24;6.55;;;4.18;;
37517;SDS011;23366;52.498;13.446;2024-03-06T08:17:50;8.40;;;5.18;;
37517;SDS011;23366;52.498;13.446;2024-03-06T08:20:17;8.50;;;5.45;;
37517;SDS011;23366;52.498;13.446;2024-03-06T08:22:43;7.78;;;4.75;;
37517;SDS011;23366;52.498;13.446;2024-03-06T08:25:10;5.82;;;4.47;;
37517;SDS011;23366;52.498;13.446;2024-03-06T08:27:37;8.90;;;4.85;;
37517;SDS011;23366;52.498;13.446;2024-03-06T08:30:03;7.90;;;5.10;;
37517;SDS011;23366;52.498;13.446;2024-03-06T08:32:30;8.23;;;4.68;;
37517;SDS011;23366;52.498;13.446;2024-03-06T08:34:59;9.95;;;4.70;;
37517;SDS011;23366;52.498;13.446;2024-03-06T08:37:25;6.38;;;4.70;;
37517;SDS011;23366;52.498;13.446;2024-03-06T08:39:51;6.90;;;4.70;;
37517;SDS011;23366;52.498;13.446;2024-03-06T08:42:17;5.90;;;4.80;;
37517;SDS011;23366;52.498;13.446;2024-03-06T08:44:43;7.90;;;4.45;;
37517;SDS011;23366;52.498;13.446;2024-03-06T08:47:09;8.93;;;5.20;;
37517;SDS011;23366;52.498;13.446;2024-03-06T08:49:35;10.50;;;5.22;;
37517;SDS011;23366;52.498;13.446;2024-03-06T08:52:01;6.63;;;5.10;;
37517;SDS011;23366;52.498;13.446;2024-03-06T08:54:27;9.73;;;5.00;;
37517;SDS011;23366;52.498;13.446;2024-03-06T08:56:57;7.28;;;4.28;;
37517;SDS011;23366;52.498;13.446;2024-03-06T08:59:24;9.02;;;5.03;;
37517;SDS011;23366;52.498;13.446;2024-03-06T09:01:53;10.82;;;5.25;;
37517;SDS011;23366;52.498;13.446;2024-03-06T09:04:20;8.83;;;5.30;;
37517;SDS011;23366;52.498;13.446;2024-03-06T09:06:46;8.18;;;5.53;;
37517;SDS011;23366;52.498;13.446;2024-03-06T09:09:13;8.88;;;4.78;;
37517;SDS011;23366;52.498;13.446;2024-03-06T09:11:40;7.03;;;4.70;;
37517;SDS011;23366;52.498;13.446;2024-03-06T09:14:07;10.20;;;4.88;;
37517;SDS011;23366;52.498;13.446;2024-03-06T09:16:34;11.25;;;4.90;;
37517;SDS011;23366;52.498;13.446;2024-03-06T09:19:00;8.15;;;3.83;;
37517;SDS011;23366;52.498;13.446;2024-03-06T09:21:26;6.90;;;4.40;;
37517;SDS011;23366;52.498;13.446;2024-03-06T09:23:51;6.18;;;4.13;;
37517;SDS011;23366;52.498;13.446;2024-03-06T09:26:17;7.35;;;4.25;;
37517;SDS011;23366;52.498;13.446;2024-03-06T09:28:43;7.32;;;4.35;;
37517;SDS011;23366;52.498;13.446;2024-03-06T09:31:09;8.45;;;4.28;;
37517;SDS011;23366;52.498;13.446;2024-03-06T09:33:38;5.15;;;3.78;;
37517;SDS011;23366;52.498;13.446;2024-03-06T09:36:04;6.70;;;3.65;;
37517;SDS011;23366;52.498;13.446;2024-03-06T09:38:30;11.55;;;4.65;;
37517;SDS011;23366;52.498;13.446;2024-03-06T09:40:57;7.47;;;3.92;;
37517;SDS011;23366;52.498;13.446;2024-03-06T09:43:23;5.25;;;3.35;;
37517;SDS011;23366;52.498;13.446;2024-03-06T09:45:50;5.25;;;3.42;;
37517;SDS011;23366;52.498;13.446;2024-03-06T09:48:17;4.85;;;3.80;;
37517;SDS011;23366;52.498;13.446;2024-03-06T09:50:46;8.13;;;3.70;;
37517;SDS011;23366;52.498;13.446;2024-03-06T09:53:12;10.23;;;4.88;;
37517;SDS011;23366;52.498;13.446;2024-03-06T09:55:40;13.60;;;4.70;;
37517;SDS011;23366;52.498;13.446;2024-03-06T09:58:06;7.43;;;5.03;;
37517;SDS011;23366;52.498;13.446;2024-03-06T10:00:33;7.13;;;5.35;;
37517;SDS011;23366;52.498;13.446;2024-03-06T10:03:01;7.63;;;4.15;;
37517;SDS011;23366;52.498;13.446;2024-03-06T10:05:30;7.60;;;4.57;;
37517;SDS011;23366;52.498;13.446;2024-03-06T10:07:58;7.22;;;4.43;;
37517;SDS011;23366;52.498;13.446;2024-03-06T10:10:24;6.43;;;4.10;;
37517;SDS011;23366;52.498;13.446;2024-03-06T10:12:51;10.30;;;5.15;;
37517;SDS011;23366;52.498;13.446;2024-03-06T10:15:17;5.72;;;4.05;;
37517;SDS011;23366;52.498;13.446;2024-03-06T10:17:43;6.03;;;3.58;;
37517;SDS011;23366;52.498;13.446;2024-03-06T10:20:23;11.70;;;5.47;;
37517;SDS011;23366;52.498;13.446;2024-03-06T10:22:52;9.07;;;4.40;;
37517;SDS011;23366;52.498;13.446;2024-03-06T10:25:19;7.68;;;4.38;;
37517;SDS011;23366;52.498;13.446;2024-03-06T10:27:45;6.55;;;4.18;;
37517;SDS011;23366;52.498;13.446;2024-03-06T10:30:11;6.25;;;4.45;;
37517;SDS011;23366;52.498;13.446;2024-03-06T10:32:41;11.43;;;5.65;;
37517;SDS011;23366;52.498;13.446;2024-03-06T10:35:17;13.65;;;5.35;;
37517;SDS011;23366;52.498;13.446;2024-03-06T10:37:43;8.80;;;4.22;;
37517;SDS011;23366;52.498;13.446;2024-03-06T10:40:09;5.47;;;4.28;;
37517;SDS011;23366;52.498;13.446;2024-03-06T10:42:38;7.07;;;4.57;;
37517;SDS011;23366;52.498;13.446;2024-03-06T10:45:07;7.10;;;4.68;;
37517;SDS011;23366;52.498;13.446;2024-03-06T10:47:33;9.55;;;4.90;;
37517;SDS011;23366;52.498;13.446;2024-03-06T10:50:02;8.75;;;4.40;;
37517;SDS011;23366;52.498;13.446;2024-03-06T10:52:29;5.45;;;3.42;;
37517;SDS011;23366;52.498;13.446;2024-03-06T10:54:58;8.25;;;4.55;;
37517;SDS011;23366;52.498;13.446;2024-03-06T10:57:24;6.78;;;3.88;;
37517;SDS011;23366;52.498;13.446;2024-03-06T10:59:51;6.45;;;3.88;;
37517;SDS011;23366;52.498;13.446;2024-03-06T11:02:18;8.50;;;4.85;;
37517;SDS011;23366;52.498;13.446;2024-03-06T11:04:44;7.20;;;4.30;;
37517;SDS011;23366;52.498;13.446;2024-03-06T11:07:10;8.65;;;5.07;;
37517;SDS011;23366;52.498;13.446;2024-03-06T11:09:37;8.65;;;5.35;;
37517;SDS011;23366;52.498;13.446;2024-03-06T11:12:04;6.60;;;4.07;;
37517;SDS011;23366;52.498;13.446;2024-03-06T11:14:35;11.00;;;5.00;;
37517;SDS011;23366;52.498;13.446;2024-03-06T11:17:08;8.02;;;4.07;;
37517;SDS011;23366;52.498;13.446;2024-03-06T11:22:59;7.32;;;4.18;;
37517;SDS011;23366;52.498;13.446;2024-03-06T11:25:07;8.60;;;4.22;;
37517;SDS011;23366;52.498;13.446;2024-03-06T11:27:33;10.50;;;5.38;;
37517;SDS011;23366;52.498;13.446;2024-03-06T11:30:19;7.28;;;4.43;;
37517;SDS011;23366;52.498;13.446;2024-03-06T11:32:59;6.13;;;4.10;;
37517;SDS011;23366;52.498;13.446;2024-03-06T11:35:28;6.95;;;4.20;;
37517;SDS011;23366;52.498;13.446;2024-03-06T11:37:54;7.40;;;5.10;;
37517;SDS011;23366;52.498;13.446;2024-03-06T11:40:23;9.40;;;5.45;;
37517;SDS011;23366;52.498;13.446;2024-03-06T11:42:49;12.18;;;5.45;;
37517;SDS011;23366;52.498;13.446;2024-03-06T11:45:17;12.02;;;6.55;;
37517;SDS011;23366;52.498;13.446;2024-03-06T11:47:57;9.88;;;4.70;;
37517;SDS011;23366;52.498;13.446;2024-03-06T11:50:23;8.13;;;4.80;;
37517;SDS011;23366;52.498;13.446;2024-03-06T11:52:50;9.50;;;5.60;;
37517;SDS011;23366;52.498;13.446;2024-03-06T11:55:17;7.40;;;4.70;;
37517;SDS011;23366;52.498;13.446;2024-03-06T11:57:43;7.40;;;4.93;;
37517;SDS011;23366;52.498;13.446;2024-03-06T12:00:09;8.25;;;4.55;;
37517;SDS011;23366;52.498;13.446;2024-03-06T12:02:36;8.45;;;5.45;;
37517;SDS011;23366;52.498;13.446;2024-03-06T12:05:02;15.85;;;6.72;;
37517;SDS011;23366;52.498;13.446;2024-03-06T12:07:30;10.75;;;6.43;;
37517;SDS011;23366;52.498;13.446;2024-03-06T12:09:57;15.68;;;8.63;;
37517;SDS011;23366;52.498;13.446;2024-03-06T12:12:23;11.05;;;7.88;;
37517;SDS011;23366;52.498;13.446;2024-03-06T12:14:58;15.00;;;9.27;;
37517;SDS011;23366;52.498;13.446;2024-03-06T12:17:25;13.73;;;8.60;;
37517;SDS011;23366;52.498;13.446;2024-03-06T12:19:51;12.07;;;7.38;;
37517;SDS011;23366;52.498;13.446;2024-03-06T12:22:24;15.00;;;8.63;;
37517;SDS011;23366;52.498;13.446;2024-03-06T12:24:58;15.10;;;9.07;;
37517;SDS011;23366;52.498;13.446;2024-03-06T12:27:24;12.93;;;7.40;;
37517;SDS011;23366;52.498;13.446;2024-03-06T12:29:52;15.68;;;7.40;;
37517;SDS011;23366;52.498;13.446;2024-03-06T12:32:19;11.27;;;7.25;;
37517;SDS011;23366;52.498;13.446;2024-03-06T12:34:55;11.70;;;6.95;;
37517;SDS011;23366;52.498;13.446;2024-03-06T12:37:28;12.85;;;8.00;;
37517;SDS011;23366;52.498;13.446;2024-03-06T12:39:55;9.70;;;6.75;;
37517;SDS011;23366;52.498;13.446;2024-03-06T12:42:21;8.80;;;5.47;;
37517;SDS011;23366;52.498;13.446;2024-03-06T12:44:49;8.25;;;6.03;;
37517;SDS011;23366;52.498;13.446;2024-03-06T12:47:15;9.70;;;5.70;;
37517;SDS011;23366;52.498;13.446;2024-03-06T12:49:41;10.60;;;6.28;;
37517;SDS011;23366;52.498;13.446;2024-03-06T12:52:07;9.05;;;5.82;;
37517;SDS011;23366;52.498;13.446;2024-03-06T12:54:33;7.35;;;4.93;;
37517;SDS011;23366;52.498;13.446;2024-03-06T12:56:59;11.05;;;5.85;;
37517;SDS011;23366;52.498;13.446;2024-03-06T12:59:25;7.97;;;5.05;;
37517;SDS011;23366;52.498;13.446;2024-03-06T13:01:51;11.20;;;6.13;;
37517;SDS011;23366;52.498;13.446;2024-03-06T13:04:19;9.00;;;6.18;;
37517;SDS011;23366;52.498;13.446;2024-03-06T13:06:45;9.55;;;5.75;;
37517;SDS011;23366;52.498;13.446;2024-03-06T13:09:11;6.68;;;5.15;;
37517;SDS011;23366;52.498;13.446;2024-03-06T13:11:37;10.77;;;5.28;;
37517;SDS011;23366;52.498;13.446;2024-03-06T13:14:03;13.30;;;7.03;;
37517;SDS011;23366;52.498;13.446;2024-03-06T13:16:29;9.05;;;5.07;;
37517;SDS011;23366;52.498;13.446;2024-03-06T13:18:55;12.38;;;5.93;;
37517;SDS011;23366;52.498;13.446;2024-03-06T13:21:22;11.18;;;6.32;;
37517;SDS011;23366;52.498;13.446;2024-03-06T13:23:48;11.55;;;6.75;;
37517;SDS011;23366;52.498;13.446;2024-03-06T13:26:14;10.23;;;6.65;;
37517;SDS011;23366;52.498;13.446;2024-03-06T13:28:40;12.10;;;6.22;;
37517;SDS011;23366;52.498;13.446;2024-03-06T13:31:06;10.23;;;6.35;;
37517;SDS011;23366;52.498;13.446;2024-03-06T13:33:33;15.95;;;6.72;;
37517;SDS011;23366;52.498;13.446;2024-03-06T13:35:59;12.43;;;7.20;;
37517;SDS011;23366;52.498;13.446;2024-03-06T13:38:25;16.60;;;8.70;;
37517;SDS011;23366;52.498;13.446;2024-03-06T13:40:50;18.02;;;8.77;;
37517;SDS011;23366;52.498;13.446;2024-03-06T13:43:16;11.73;;;7.03;;
37517;SDS011;23366;52.498;13.446;2024-03-06T13:45:48;19.13;;;8.90;;
37517;SDS011;23366;52.498;13.446;2024-03-06T13:48:15;21.10;;;9.30;;
37517;SDS011;23366;52.498;13.446;2024-03-06T13:50:42;19.63;;;10.23;;
37517;SDS011;23366;52.498;13.446;2024-03-06T13:53:09;26.60;;;11.43;;
37517;SDS011;23366;52.498;13.446;2024-03-06T13:55:35;18.55;;;8.68;;
37517;SDS011;23366;52.498;13.446;2024-03-06T13:58:01;20.38;;;9.82;;
37517;SDS011;23366;52.498;13.446;2024-03-06T14:00:27;16.92;;;8.68;;
37517;SDS011;23366;52.498;13.446;2024-03-06T14:02:54;20.50;;;9.25;;
37517;SDS011;23366;52.498;13.446;2024-03-06T14:05:20;21.30;;;10.27;;
37517;SDS011;23366;52.498;13.446;2024-03-06T14:07:53;14.05;;;6.97;;
37517;SDS011;23366;52.498;13.446;2024-03-06T14:10:20;14.23;;;7.15;;
37517;SDS011;23366;52.498;13.446;2024-03-06T14:12:48;13.00;;;7.82;;
37517;SDS011;23366;52.498;13.446;2024-03-06T14:15:17;16.58;;;6.80;;
37517;SDS011;23366;52.498;13.446;2024-03-06T14:17:44;14.25;;;6.65;;
37517;SDS011;23366;52.498;13.446;2024-03-06T14:20:10;11.30;;;6.35;;
37517;SDS011;23366;52.498;13.446;2024-03-06T14:22:41;10.15;;;5.93;;
37517;SDS011;23366;52.498;13.446;2024-03-06T14:25:07;11.20;;;6.05;;
37517;SDS011;23366;52.498;13.446;2024-03-06T14:27:33;11.73;;;7.03;;